createdAt,value
2018-08-04T00:56:10.561Z,99.90
2018-08-04T00:58:39.294Z,99.90
2018-08-04T01:01:08.194Z,99.90
2018-08-04T01:03:37.642Z,99.90
2018-08-04T01:06:06.177Z,99.90
2018-08-04T01:08:34.717Z,99.90
2018-08-04T01:11:04.144Z,99.90
2018-08-04T01:13:32.667Z,99.90
2018-08-04T01:16:01.114Z,99.90
2018-08-04T01:18:29.742Z,99.90
2018-08-04T01:20:58.393Z,99.90
2018-08-04T01:23:27.166Z,99.90
2018-08-04T01:25:57.390Z,99.90
2018-08-04T01:28:26.402Z,99.90
2018-08-04T01:30:55.104Z,99.90
2018-08-04T01:33:24.298Z,99.90
2018-08-04T01:35:53.769Z,99.90
2018-08-04T01:38:22.167Z,99.90
2018-08-04T01:40:50.896Z,99.90
2018-08-04T01:43:19.273Z,99.90
2018-08-04T01:45:47.996Z,99.90
2018-08-04T01:48:17.379Z,99.90
2018-08-04T01:50:46.132Z,99.90
2018-08-04T01:53:14.661Z,99.90
2018-08-04T01:55:43.524Z,99.90
2018-08-04T01:58:12.122Z,99.90
2018-08-04T02:00:40.949Z,99.90
2018-08-04T02:03:09.356Z,99.90
2018-08-04T02:05:37.868Z,99.90
2018-08-04T02:08:06.522Z,99.90
2018-08-04T02:10:34.959Z,99.90
2018-08-04T02:13:04.413Z,99.90
2018-08-04T02:15:32.880Z,99.90
2018-08-04T02:18:01.266Z,99.90
2018-08-04T02:20:29.840Z,99.90
2018-08-04T02:22:58.480Z,99.90
2018-08-04T02:25:27.225Z,99.90
2018-08-04T02:27:57.372Z,99.90
2018-08-04T02:30:26.005Z,99.90
2018-08-04T02:32:54.882Z,99.90
2018-08-04T02:35:24.501Z,99.90
2018-08-04T02:37:53.047Z,99.90
2018-08-04T02:40:21.478Z,99.90
2018-08-04T02:42:49.899Z,99.90
2018-08-04T02:45:19.598Z,99.90
2018-08-04T02:47:49.490Z,99.90
2018-08-04T02:50:18.111Z,99.90
2018-08-04T02:52:46.517Z,99.90
2018-08-04T02:55:14.943Z,99.90
2018-08-04T02:57:45.340Z,99.90
2018-08-04T03:00:13.751Z,99.90
2018-08-04T03:02:42.123Z,99.90
2018-08-04T03:05:10.524Z,99.90
2018-08-04T03:07:40.113Z,99.90
2018-08-04T03:10:08.574Z,99.90
2018-08-04T03:12:37.383Z,99.90
2018-08-04T03:15:06.022Z,99.90
2018-08-04T03:17:34.603Z,99.90
2018-08-04T03:20:03.329Z,99.90
2018-08-04T03:22:32.120Z,99.90
2018-08-04T03:25:00.928Z,99.90
2018-08-04T03:27:29.331Z,99.90
2018-08-04T03:29:58.437Z,99.90
2018-08-04T03:32:27.255Z,99.90
2018-08-04T03:34:56.508Z,99.90
2018-08-04T03:37:24.924Z,99.90
2018-08-04T03:39:53.421Z,99.90
2018-08-04T03:42:21.849Z,99.90
2018-08-04T03:44:50.656Z,99.90
2018-08-04T03:47:19.798Z,99.90
2018-08-04T03:49:48.167Z,99.90
2018-08-04T03:52:16.663Z,99.90
2018-08-04T03:54:45.441Z,99.90
2018-08-04T03:57:13.976Z,99.90
2018-08-04T03:59:42.922Z,99.90
2018-08-04T04:02:12.295Z,99.90
2018-08-04T04:04:42.234Z,99.90
2018-08-04T04:07:11.293Z,99.90
2018-08-04T04:09:39.700Z,99.90
2018-08-04T04:12:08.261Z,99.90
2018-08-04T04:14:37.279Z,99.90
2018-08-04T04:17:05.796Z,99.90
2018-08-04T04:19:34.293Z,99.90
2018-08-04T04:22:02.758Z,99.90
2018-08-04T04:24:31.960Z,99.90
2018-08-04T04:27:00.566Z,99.90
2018-08-04T04:29:29.239Z,99.90
2018-08-04T04:31:57.973Z,99.90
2018-08-04T04:36:55.062Z,99.90
2018-08-04T04:39:23.391Z,99.90
2018-08-04T04:41:51.832Z,99.90
2018-08-04T04:44:20.226Z,99.90
2018-08-04T04:46:48.709Z,99.90
2018-08-04T04:49:17.891Z,99.90
2018-08-04T04:51:46.669Z,99.90
2018-08-04T04:54:15.636Z,99.90
2018-08-04T04:56:45.417Z,99.90
2018-08-04T04:59:14.488Z,99.90
2018-08-04T05:01:43.035Z,99.90
2018-08-04T05:04:11.817Z,99.90
2018-08-04T05:06:40.222Z,99.90
2018-08-04T05:09:09.708Z,99.90
2018-08-04T05:11:38.440Z,99.90
2018-08-04T05:14:07.994Z,99.90
2018-08-04T05:16:36.433Z,99.90
2018-08-04T05:19:05.280Z,99.90
2018-08-04T05:21:34.406Z,99.90
2018-08-04T05:24:03.117Z,99.90
2018-08-04T05:26:31.526Z,99.90
2018-08-04T05:29:00.948Z,99.90
2018-08-04T05:31:30.128Z,99.90
2018-08-04T05:33:58.691Z,99.90
2018-08-04T05:36:27.273Z,99.90
2018-08-04T05:38:55.799Z,99.90
2018-08-04T05:41:24.313Z,99.90
2018-08-04T05:43:53.249Z,99.90
2018-08-04T05:46:24.672Z,99.90
2018-08-04T05:48:55.703Z,99.90
2018-08-04T05:51:25.469Z,99.90
2018-08-04T05:53:53.873Z,99.90
2018-08-04T05:56:22.505Z,99.90
2018-08-04T05:58:51.580Z,99.90
2018-08-04T06:01:20.151Z,99.90
2018-08-04T06:03:49.068Z,99.90
2018-08-04T06:06:17.709Z,99.90
2018-08-04T06:08:46.429Z,99.90
2018-08-04T06:11:16.152Z,99.90
2018-08-04T06:13:44.593Z,99.90
2018-08-04T06:16:13.010Z,99.90
2018-08-04T06:18:41.785Z,99.90
2018-08-04T06:21:11.331Z,99.90
2018-08-04T06:23:39.683Z,99.90
2018-08-04T06:26:08.679Z,99.90
2018-08-04T06:28:37.333Z,99.90
2018-08-04T06:31:05.915Z,99.90
2018-08-04T06:33:36.109Z,99.90
2018-08-04T06:36:05.039Z,99.90
2018-08-04T06:38:37.024Z,99.90
2018-08-04T06:41:06.232Z,99.90
2018-08-04T06:43:34.654Z,99.90
2018-08-04T06:46:03.121Z,97.40
2018-08-04T06:48:32.402Z,94.70
2018-08-04T06:51:00.808Z,90.70
2018-08-04T06:53:29.624Z,90.40
2018-08-04T06:55:58.103Z,84.70
2018-08-04T06:58:26.922Z,75.10
2018-08-04T07:00:55.677Z,73.90
2018-08-04T07:03:26.237Z,72.70
2018-08-04T07:05:54.736Z,69.90
2018-08-04T07:08:23.389Z,67.10
2018-08-04T07:13:20.272Z,69.10
2018-08-04T07:15:48.736Z,66.40
2018-08-04T07:18:18.374Z,66.10
2018-08-04T07:20:46.768Z,64.10
2018-08-04T07:23:15.505Z,63.50
2018-08-04T07:25:43.920Z,62.80
2018-08-04T07:28:14.112Z,62.90
2018-08-04T07:30:42.643Z,60.20
2018-08-04T07:33:11.038Z,58.60
2018-08-04T07:35:39.921Z,58.40
2018-08-04T07:38:08.513Z,57.50
2018-08-04T07:40:37.768Z,57.80
2018-08-04T07:43:06.569Z,57.40
2018-08-04T07:45:34.999Z,59.60
2018-08-04T07:48:04.957Z,64.20
2018-08-04T07:50:33.760Z,65.10
2018-08-04T07:53:02.921Z,67.00
2018-08-04T07:55:31.680Z,60.00
2018-08-04T07:58:00.354Z,60.90
2018-08-04T08:00:28.938Z,60.20
2018-08-04T08:02:57.477Z,57.20
2018-08-04T08:05:25.845Z,56.80
2018-08-04T08:07:55.054Z,54.60
2018-08-04T08:10:24.336Z,57.60
2018-08-04T08:12:53.084Z,53.80
2018-08-04T08:15:21.753Z,53.30
2018-08-04T08:17:50.526Z,49.50
2018-08-04T08:20:19.391Z,48.50
2018-08-04T08:22:47.832Z,49.20
2018-08-04T08:25:16.525Z,49.40
2018-08-04T08:27:45.345Z,48.40
2018-08-04T08:30:15.128Z,46.90
2018-08-04T08:32:45.513Z,45.40
2018-08-04T08:35:15.569Z,47.40
2018-08-04T08:37:44.281Z,48.80
2018-08-04T08:40:13.720Z,47.40
2018-08-04T08:42:42.397Z,51.50
2018-08-04T08:45:11.672Z,48.80
2018-08-04T08:47:40.188Z,44.90
2018-08-04T08:50:10.921Z,44.40
2018-08-04T08:52:39.549Z,44.00
2018-08-04T08:55:08.985Z,44.20
2018-08-04T08:57:37.841Z,43.80
2018-08-04T09:00:08.688Z,44.60
2018-08-04T09:02:37.770Z,47.90
2018-08-04T09:05:06.973Z,47.70
2018-08-04T09:07:35.997Z,46.60
2018-08-04T09:10:07.117Z,46.10
2018-08-04T09:12:36.044Z,46.10
2018-08-04T09:15:04.929Z,42.50
2018-08-04T09:17:34.008Z,46.00
2018-08-04T09:20:02.650Z,42.90
2018-08-04T09:22:32.594Z,43.50
2018-08-04T09:25:01.084Z,42.70
2018-08-04T09:27:30.302Z,42.00
2018-08-04T09:29:59.155Z,40.90
2018-08-04T09:32:27.917Z,39.90
2018-08-04T09:34:56.942Z,39.80
2018-08-04T09:37:26.597Z,42.20
2018-08-04T09:39:55.474Z,39.10
2018-08-04T09:42:24.668Z,41.10
2018-08-04T09:44:53.596Z,37.90
2018-08-04T09:47:22.066Z,38.70
2018-08-04T09:49:51.245Z,38.40
2018-08-04T09:52:23.758Z,39.00
2018-08-04T09:57:20.889Z,38.70
2018-08-04T09:59:49.299Z,42.10
2018-08-04T10:02:24.154Z,38.50
2018-08-04T10:04:53.293Z,38.90
2018-08-04T10:07:21.763Z,35.60
2018-08-04T10:09:51.190Z,35.90
2018-08-04T10:12:19.763Z,39.20
2018-08-04T10:14:48.837Z,36.90
2018-08-04T10:17:17.284Z,37.50
2018-08-04T10:19:46.627Z,36.90
2018-08-04T10:22:15.367Z,38.60
2018-08-04T10:24:43.917Z,37.40
2018-08-04T10:27:12.355Z,39.00
2018-08-04T10:29:41.446Z,39.10
2018-08-04T10:32:10.754Z,38.70
2018-08-04T10:34:39.208Z,39.30
2018-08-04T10:39:36.730Z,37.70
2018-08-04T10:42:05.303Z,37.40
2018-08-04T10:44:33.731Z,36.50
2018-08-04T10:47:03.182Z,37.30
2018-08-04T10:49:31.951Z,34.10
2018-08-04T10:52:00.997Z,33.40
2018-08-04T10:54:33.691Z,34.80
2018-08-04T10:57:04.064Z,36.50
2018-08-04T10:59:32.474Z,35.30
2018-08-04T11:02:01.313Z,35.80
2018-08-04T11:04:30.120Z,35.30
2018-08-04T11:06:58.991Z,33.10
2018-08-04T11:09:28.211Z,32.30
2018-08-04T11:11:57.243Z,30.80
2018-08-04T11:14:26.104Z,32.90
2018-08-04T11:16:54.968Z,30.90
2018-08-04T11:19:23.585Z,32.00
2018-08-04T11:21:52.196Z,33.50
2018-08-04T11:24:20.892Z,35.60
2018-08-04T11:26:49.740Z,32.80
2018-08-04T11:29:18.620Z,34.50
2018-08-04T11:31:47.405Z,35.90
2018-08-04T11:34:17.646Z,36.70
2018-08-04T11:36:46.336Z,37.00
2018-08-04T11:39:21.656Z,36.20
2018-08-04T11:41:50.461Z,37.30
2018-08-04T11:44:19.587Z,35.30
2018-08-04T11:46:48.908Z,39.40
2018-08-04T11:49:18.321Z,36.40
2018-08-04T11:51:47.927Z,35.90
2018-08-04T11:54:16.720Z,35.80
2018-08-04T11:56:45.299Z,35.80
2018-08-04T11:59:13.957Z,35.50
2018-08-04T12:01:42.852Z,37.20
2018-08-04T12:04:11.467Z,38.40
2018-08-04T12:06:40.029Z,40.00
2018-08-04T12:09:11.105Z,38.90
2018-08-04T12:11:39.774Z,37.40
2018-08-04T12:14:10.268Z,39.40
2018-08-04T12:16:38.976Z,37.20
2018-08-04T12:19:07.695Z,37.10
2018-08-04T12:21:36.354Z,40.30
2018-08-04T12:24:05.087Z,37.60
2018-08-04T12:26:33.564Z,38.90
2018-08-04T12:29:02.701Z,39.20
2018-08-04T12:31:31.624Z,40.50
2018-08-04T12:34:00.407Z,39.00
2018-08-04T12:38:58.368Z,41.50
2018-08-04T12:41:27.085Z,40.00
2018-08-04T12:43:55.736Z,40.20
2018-08-04T12:46:24.341Z,36.40
2018-08-04T12:48:53.120Z,36.00
2018-08-04T12:51:21.519Z,35.90
2018-08-04T12:53:50.880Z,36.60
2018-08-04T12:56:22.192Z,37.60
2018-08-04T12:58:50.687Z,35.30
2018-08-04T13:01:19.484Z,38.80
2018-08-04T13:03:48.501Z,38.10
2018-08-04T13:06:19.294Z,37.20
2018-08-04T13:08:47.703Z,34.00
2018-08-04T13:11:16.192Z,33.10
2018-08-04T13:13:45.619Z,34.30
2018-08-04T13:16:14.093Z,34.00
2018-08-04T13:18:42.952Z,33.40
2018-08-04T13:21:11.377Z,31.30
2018-08-04T13:23:40.384Z,32.20
2018-08-04T13:26:08.891Z,36.00
2018-08-04T13:28:37.900Z,33.30
2018-08-04T13:31:08.073Z,34.30
2018-08-04T13:33:36.828Z,35.40
2018-08-04T13:36:05.834Z,35.30
2018-08-04T13:38:34.575Z,37.60
2018-08-04T13:41:03.267Z,36.90
2018-08-04T13:43:32.035Z,32.20
2018-08-04T13:46:00.583Z,36.10
2018-08-04T13:48:29.183Z,33.50
2018-08-04T13:50:57.919Z,32.10
2018-08-04T13:53:26.426Z,33.50
2018-08-04T13:55:55.453Z,37.40
2018-08-04T13:58:24.297Z,38.10
2018-08-04T14:00:53.847Z,35.60
2018-08-04T14:03:22.287Z,33.30
2018-08-04T14:05:51.120Z,34.80
2018-08-04T14:08:19.744Z,34.00
2018-08-04T14:10:49.198Z,34.40
2018-08-04T14:13:17.732Z,33.50
2018-08-04T14:15:46.563Z,34.40
2018-08-04T14:18:15.955Z,33.90
2018-08-04T14:20:44.371Z,33.30
2018-08-04T14:23:13.000Z,35.90
2018-08-04T14:25:41.471Z,32.40
2018-08-04T14:28:09.982Z,33.20
2018-08-04T14:30:42.580Z,34.40
2018-08-04T14:33:11.645Z,34.60
2018-08-04T14:35:40.640Z,35.20
2018-08-04T14:38:09.378Z,35.30
2018-08-04T14:40:38.331Z,36.30
2018-08-04T14:43:06.889Z,35.40
2018-08-04T14:45:35.554Z,37.20
2018-08-04T14:48:04.131Z,38.20
2018-08-04T14:50:32.998Z,37.70
2018-08-04T14:53:02.078Z,36.10
2018-08-04T14:55:30.694Z,35.90
2018-08-04T14:57:59.389Z,37.50
2018-08-04T15:00:27.908Z,36.00
2018-08-04T15:02:56.314Z,36.30
2018-08-04T15:05:25.214Z,36.30
2018-08-04T15:07:53.874Z,36.70
2018-08-04T15:10:22.523Z,36.70
2018-08-04T15:12:51.585Z,36.10
2018-08-04T15:15:20.164Z,38.70
2018-08-04T15:17:54.602Z,38.30
2018-08-04T15:20:23.363Z,37.00
2018-08-04T15:22:52.487Z,37.70
2018-08-04T15:25:21.495Z,37.50
2018-08-04T15:27:50.059Z,38.40
2018-08-04T15:30:18.535Z,38.00
2018-08-04T15:32:48.564Z,38.40
2018-08-04T15:35:17.927Z,38.20
2018-08-04T15:37:49.023Z,38.40
2018-08-04T15:40:17.724Z,40.10
2018-08-04T15:42:47.257Z,40.80
2018-08-04T15:45:15.760Z,40.40
2018-08-04T15:47:45.244Z,40.60
2018-08-04T15:50:14.036Z,41.30
2018-08-04T15:52:43.708Z,40.80
2018-08-04T15:55:13.462Z,45.60
2018-08-04T15:57:42.036Z,41.70
2018-08-04T16:00:11.687Z,43.70
2018-08-04T16:02:40.758Z,43.30
2018-08-04T16:05:09.749Z,42.70
2018-08-04T16:07:42.061Z,44.30
2018-08-04T16:10:12.091Z,44.60
2018-08-04T16:12:41.092Z,45.30
2018-08-04T16:15:10.525Z,46.30
2018-08-04T16:20:14.305Z,51.20
2018-08-04T16:22:45.947Z,52.70
2018-08-04T16:25:15.351Z,54.40
2018-08-04T16:27:45.655Z,55.40
2018-08-04T16:30:14.617Z,56.50
2018-08-04T16:32:43.611Z,57.30
2018-08-04T16:35:12.589Z,58.00
2018-08-04T16:37:41.771Z,58.70
2018-08-04T16:40:10.563Z,58.40
2018-08-04T16:42:39.615Z,58.10
2018-08-04T16:45:09.101Z,57.60
2018-08-04T16:47:37.679Z,57.70
2018-08-04T16:50:06.400Z,57.70
2018-08-04T16:52:35.998Z,58.10
2018-08-04T16:55:05.569Z,58.60
2018-08-04T16:57:35.186Z,58.70
2018-08-04T17:00:04.100Z,59.20
2018-08-04T17:02:33.712Z,58.60
2018-08-04T17:05:02.939Z,59.20
2018-08-04T17:07:31.363Z,59.20
2018-08-04T17:09:59.809Z,60.10
2018-08-04T17:12:28.494Z,61.00
2018-08-04T17:14:57.407Z,62.60
2018-08-04T17:17:26.097Z,60.60
2018-08-04T17:19:54.837Z,60.30
2018-08-04T17:22:23.377Z,60.90
2018-08-04T17:24:52.581Z,63.10
2018-08-04T17:27:21.401Z,62.70
2018-08-04T17:29:49.865Z,62.50
2018-08-04T17:32:19.823Z,63.00
2018-08-04T17:34:48.382Z,62.00
2018-08-04T17:37:17.069Z,63.30
2018-08-04T17:39:46.241Z,63.40
2018-08-04T17:42:14.698Z,63.70
2018-08-04T17:44:43.387Z,64.60
2018-08-04T17:47:11.940Z,65.30
2018-08-04T17:49:40.527Z,66.60
2018-08-04T17:52:09.484Z,66.40
2018-08-04T17:54:38.064Z,67.10
2018-08-04T17:57:06.993Z,67.80
2018-08-04T17:59:35.725Z,68.60
2018-08-04T18:02:04.603Z,69.10
2018-08-04T18:04:33.422Z,69.90
2018-08-04T18:07:02.322Z,70.40
2018-08-04T18:09:30.938Z,70.40
2018-08-04T18:11:59.990Z,71.70
2018-08-04T18:14:28.670Z,71.80
2018-08-04T18:16:57.423Z,72.90
2018-08-04T18:19:25.852Z,72.60
2018-08-04T18:21:54.304Z,72.80
2018-08-04T18:24:22.885Z,75.40
2018-08-04T18:26:51.644Z,75.10
2018-08-04T18:29:21.465Z,76.40
2018-08-04T18:31:49.969Z,76.60
2018-08-04T18:34:19.047Z,77.80
2018-08-04T18:36:48.002Z,79.60
2018-08-04T18:39:17.156Z,79.80
2018-08-04T18:41:45.584Z,82.20
2018-08-04T18:44:14.396Z,82.30
2018-08-04T18:46:43.155Z,83.90
2018-08-04T18:49:11.670Z,84.50
2018-08-04T18:51:40.789Z,85.80
2018-08-04T18:54:10.300Z,86.00
2018-08-04T18:56:39.368Z,88.10
2018-08-04T18:59:07.987Z,88.80
2018-08-04T19:01:36.787Z,88.80
2018-08-04T19:04:05.460Z,89.60
2018-08-04T19:06:35.746Z,90.50
2018-08-04T19:09:06.467Z,91.30
2018-08-04T19:11:34.876Z,92.50
2018-08-04T19:14:03.857Z,93.20
2018-08-04T19:16:32.273Z,94.60
2018-08-04T19:19:02.102Z,95.50
2018-08-04T19:21:30.838Z,96.20
2018-08-04T19:26:34.846Z,97.20
2018-08-04T19:29:03.996Z,98.30
2018-08-04T19:31:37.172Z,98.80
2018-08-04T19:34:11.353Z,99.20
2018-08-04T19:36:42.811Z,99.50
2018-08-04T19:41:42.363Z,99.90
2018-08-04T19:44:11.483Z,99.90
2018-08-04T19:46:42.472Z,99.90
2018-08-04T19:49:11.404Z,99.90
2018-08-04T19:51:40.168Z,99.90
2018-08-04T19:56:37.780Z,99.90
2018-08-04T19:59:06.867Z,99.90
2018-08-04T20:01:35.673Z,99.90
2018-08-04T20:04:04.702Z,99.90
2018-08-04T20:06:33.571Z,99.90
2018-08-04T20:09:02.387Z,99.90
2018-08-04T20:11:31.230Z,99.90
2018-08-04T20:13:59.932Z,99.90
2018-08-04T20:16:29.643Z,99.90
2018-08-04T20:18:58.405Z,99.90
2018-08-04T20:21:27.365Z,99.90
2018-08-04T20:23:56.294Z,99.90
2018-08-04T20:26:25.225Z,99.90
2018-08-04T20:28:54.130Z,99.90
2018-08-04T20:31:22.751Z,99.90
2018-08-04T20:33:51.781Z,99.90
2018-08-04T20:36:20.397Z,99.90
2018-08-04T20:38:50.043Z,99.90
2018-08-04T20:41:20.292Z,99.90
2018-08-04T20:43:48.809Z,99.90
2018-08-04T20:46:17.883Z,99.90
2018-08-04T20:48:46.610Z,99.90
2018-08-04T20:51:15.509Z,99.90
2018-08-04T20:53:44.558Z,99.90
2018-08-04T20:56:13.589Z,99.90
2018-08-04T20:58:43.656Z,99.90
2018-08-04T21:01:23.306Z,99.90
2018-08-04T21:03:53.034Z,99.90
2018-08-04T21:06:23.017Z,99.90
2018-08-04T21:08:52.034Z,99.90
2018-08-04T21:11:21.163Z,99.90
2018-08-04T21:13:49.786Z,99.90
2018-08-04T21:16:18.499Z,99.90
2018-08-04T21:18:47.105Z,99.90
2018-08-04T21:21:16.232Z,99.90
2018-08-04T21:23:46.793Z,99.90
2018-08-04T21:26:15.719Z,99.90
2018-08-04T21:28:44.741Z,99.90
2018-08-04T21:31:13.839Z,99.90
2018-08-04T21:33:42.756Z,99.90
2018-08-04T21:36:11.799Z,99.90
2018-08-04T21:38:40.468Z,99.90
2018-08-04T21:41:11.559Z,99.90
2018-08-04T21:43:40.375Z,99.90
2018-08-04T21:46:09.536Z,99.90
2018-08-04T21:48:38.899Z,99.90
2018-08-04T21:51:07.745Z,99.90
2018-08-04T21:53:36.513Z,99.90
